Time;durP1;ratioP1;P1;durP2;ratioP2;P2;SDS_P1;SDS_P2;PMS_P1;PMS_P2;Temp;Humidity;BMP_temperature;BMP_pressure;BME280_temperature;BME280_humidity;BME280_pressure;Samples;Min_cycle;Max_cycle;Signal;HPM_P1;HPM_P2
2022/02/17 00:00:09;;;;;;;8.30;2.73;;;;;;;;;;5074218;28;20444;-68
2022/02/17 00:02:36;;;;;;;5.13;2.40;;;;;;;;;;5073911;28;20448;-68
2022/02/17 00:05:05;;;;;;;5.90;2.13;;;;;;;;;;5073766;28;20530;-69
2022/02/17 00:07:32;;;;;;;4.13;1.73;;;;;;;;;;5073907;28;20547;-68
2022/02/17 00:10:00;;;;;;;4.10;1.87;;;;;;;;;;5073833;28;20531;-68
2022/02/17 00:12:27;;;;;;;6.37;2.17;;;;;;;;;;5073585;28;20801;-68
2022/02/17 00:14:54;;;;;;;8.30;2.17;;;;;;;;;;5073949;28;20523;-68
2022/02/17 00:20:26;;;;;;;4.13;1.90;;;;;;;;;;5073195;28;20423;-68
2022/02/17 00:22:54;;;;;;;7.67;2.03;;;;;;;;;;5073236;28;20483;-68
2022/02/17 00:25:21;;;;;;;4.63;1.67;;;;;;;;;;5073742;28;20516;-69
2022/02/17 00:27:49;;;;;;;9.40;2.47;;;;;;;;;;5073461;28;20436;-70
2022/02/17 00:30:16;;;;;;;4.67;2.00;;;;;;;;;;5073098;28;20528;-71
2022/02/17 00:32:43;;;;;;;3.00;1.70;;;;;;;;;;5073096;28;20498;-69
2022/02/17 00:35:10;;;;;;;12.20;2.77;;;;;;;;;;5072962;28;20198;-71
2022/02/17 00:37:39;;;;;;;4.03;2.13;;;;;;;;;;5073432;28;20906;-70
2022/02/17 00:40:07;;;;;;;7.43;2.43;;;;;;;;;;5073415;28;20863;-70
2022/02/17 00:42:34;;;;;;;9.33;3.17;;;;;;;;;;5073680;28;20444;-71
2022/02/17 00:45:02;;;;;;;3.33;2.00;;;;;;;;;;5073275;28;20507;-70
2022/02/17 00:47:29;;;;;;;17.63;3.90;;;;;;;;;;5073590;28;20433;-70
2022/02/17 00:49:57;;;;;;;7.63;2.20;;;;;;;;;;5072827;28;20467;-70
2022/02/17 00:52:26;;;;;;;8.03;2.23;;;;;;;;;;5073273;28;20466;-70
2022/02/17 00:54:54;;;;;;;12.43;2.50;;;;;;;;;;5073157;28;20505;-69
2022/02/17 00:57:22;;;;;;;6.83;3.17;;;;;;;;;;5073537;28;20447;-69
2022/02/17 00:59:49;;;;;;;8.87;2.80;;;;;;;;;;5072823;28;20535;-70
2022/02/17 01:02:16;;;;;;;8.30;2.07;;;;;;;;;;5076722;28;20526;-69
2022/02/17 01:04:43;;;;;;;5.60;2.90;;;;;;;;;;5077030;28;20555;-70
2022/02/17 01:07:11;;;;;;;7.57;2.30;;;;;;;;;;5077031;28;20470;-69
2022/02/17 01:09:38;;;;;;;7.90;2.50;;;;;;;;;;5076455;28;20281;-69
2022/02/17 01:12:07;;;;;;;9.10;1.90;;;;;;;;;;5076755;28;20289;-69
2022/02/17 01:14:34;;;;;;;5.90;2.53;;;;;;;;;;5076682;28;20532;-70
2022/02/17 01:17:02;;;;;;;5.70;2.37;;;;;;;;;;5076356;28;20444;-70
2022/02/17 01:19:29;;;;;;;4.73;2.73;;;;;;;;;;5076278;28;20447;-69
2022/02/17 01:21:56;;;;;;;6.97;2.60;;;;;;;;;;5076619;28;20487;-68
2022/02/17 01:24:24;;;;;;;5.60;2.33;;;;;;;;;;5076719;28;20507;-68
2022/02/17 01:26:51;;;;;;;7.83;3.37;;;;;;;;;;5076439;28;20486;-69
2022/02/17 01:29:20;;;;;;;5.13;2.03;;;;;;;;;;5077098;28;20926;-68
2022/02/17 01:31:47;;;;;;;4.90;2.80;;;;;;;;;;5076741;28;20495;-68
2022/02/17 01:34:14;;;;;;;3.57;2.07;;;;;;;;;;5076391;28;20451;-70
2022/02/17 01:36:42;;;;;;;7.20;2.83;;;;;;;;;;5076288;28;20440;-68
2022/02/17 01:39:09;;;;;;;5.23;3.27;;;;;;;;;;5076501;28;20472;-67
2022/02/17 01:41:36;;;;;;;3.53;1.67;;;;;;;;;;5076193;28;20527;-67
2022/02/17 01:44:04;;;;;;;7.23;2.67;;;;;;;;;;5076260;28;20911;-67
2022/02/17 01:46:37;;;;;;;10.30;4.50;;;;;;;;;;5076016;28;20512;-67
2022/02/17 01:49:05;;;;;;;8.73;2.97;;;;;;;;;;5076681;28;20503;-68
2022/02/17 01:51:33;;;;;;;10.73;3.27;;;;;;;;;;5076080;28;20256;-67
2022/02/17 01:54:00;;;;;;;8.23;2.53;;;;;;;;;;5076336;28;20444;-68
2022/02/17 01:56:28;;;;;;;5.90;2.53;;;;;;;;;;5075696;28;20448;-68
2022/02/17 01:58:56;;;;;;;7.27;3.10;;;;;;;;;;5075683;28;20440;-68
2022/02/17 02:01:23;;;;;;;8.73;2.70;;;;;;;;;;5075930;28;20490;-67
2022/02/17 02:03:52;;;;;;;11.50;3.10;;;;;;;;;;5075806;28;20492;-70
2022/02/17 02:06:19;;;;;;;12.53;3.00;;;;;;;;;;5075398;28;20512;-68
2022/02/17 02:08:47;;;;;;;4.57;2.27;;;;;;;;;;5075811;28;20466;-69
2022/02/17 02:11:15;;;;;;;2.65;1.60;;;;;;;;;;5075505;28;20527;-70
2022/02/17 02:13:42;;;;;;;6.70;1.70;;;;;;;;;;5076040;28;20198;-70
2022/02/17 02:16:09;;;;;;;2.30;1.70;;;;;;;;;;5075369;28;20539;-71
2022/02/17 02:18:36;;;;;;;6.70;2.15;;;;;;;;;;5075605;28;20527;-70
2022/02/17 02:21:05;;;;;;;15.00;2.57;;;;;;;;;;5075253;28;20193;-70
2022/02/17 02:23:33;;;;;;;3.57;1.97;;;;;;;;;;5075342;28;20469;-70
2022/02/17 02:26:00;;;;;;;8.95;2.38;;;;;;;;;;5075050;28;20515;-70
2022/02/17 02:28:29;;;;;;;5.20;2.15;;;;;;;;;;5075603;28;20288;-70
2022/02/17 02:30:56;;;;;;;5.53;1.88;;;;;;;;;;5075367;28;20613;-70
2022/02/17 02:33:24;;;;;;;6.15;2.10;;;;;;;;;;5075624;28;20194;-69
2022/02/17 02:35:51;;;;;;;3.35;1.65;;;;;;;;;;5074907;28;20204;-69
2022/02/17 02:38:21;;;;;;;6.32;2.13;;;;;;;;;;5075157;28;20292;-69
2022/02/17 02:40:48;;;;;;;5.03;3.37;;;;;;;;;;5075102;28;20291;-69
2022/02/17 02:43:15;;;;;;;6.00;2.40;;;;;;;;;;5075122;28;20440;-69
2022/02/17 02:45:44;;;;;;;10.37;1.90;;;;;;;;;;5074978;28;20214;-68
2022/02/17 02:48:12;;;;;;;8.67;2.23;;;;;;;;;;5074995;28;20447;-69
2022/02/17 02:50:40;;;;;;;6.97;3.15;;;;;;;;;;5074920;28;20443;-68
2022/02/17 02:53:07;;;;;;;10.40;5.35;;;;;;;;;;5074850;28;20194;-67
2022/02/17 02:55:35;;;;;;;12.73;3.53;;;;;;;;;;5074513;28;20198;-68
2022/02/17 02:58:03;;;;;;;8.63;2.57;;;;;;;;;;5074788;28;20528;-68
2022/02/17 03:00:30;;;;;;;10.93;2.53;;;;;;;;;;5074950;28;20436;-68
2022/02/17 03:02:57;;;;;;;4.30;2.83;;;;;;;;;;5075025;28;20201;-68
2022/02/17 03:05:24;;;;;;;5.10;2.08;;;;;;;;;;5074623;28;20257;-68
2022/02/17 03:07:54;;;;;;;8.00;2.90;;;;;;;;;;5074561;28;20616;-67
2022/02/17 03:10:22;;;;;;;7.30;3.10;;;;;;;;;;5074924;28;20447;-67
2022/02/17 03:12:51;;;;;;;5.28;2.47;;;;;;;;;;5074447;28;20471;-68
2022/02/17 03:15:18;;;;;;;10.53;3.07;;;;;;;;;;5074065;28;20240;-67
2022/02/17 03:17:45;;;;;;;8.07;3.55;;;;;;;;;;5074073;28;20964;-68
2022/02/17 03:20:13;;;;;;;5.72;2.42;;;;;;;;;;5074747;28;20233;-67
2022/02/17 03:22:40;;;;;;;7.28;2.50;;;;;;;;;;5073999;28;20203;-67
2022/02/17 03:25:09;;;;;;;11.55;2.97;;;;;;;;;;5073410;28;20232;-67
2022/02/17 03:27:36;;;;;;;8.20;2.60;;;;;;;;;;5073884;28;20198;-68
2022/02/17 03:30:06;;;;;;;9.32;2.75;;;;;;;;;;5073970;28;20203;-68
2022/02/17 03:32:35;;;;;;;12.07;2.83;;;;;;;;;;5074182;28;20182;-69
2022/02/17 03:35:02;;;;;;;8.02;2.50;;;;;;;;;;5074514;28;20450;-68
2022/02/17 03:37:30;;;;;;;6.45;3.00;;;;;;;;;;5074005;28;20197;-68
2022/02/17 03:39:57;;;;;;;5.53;2.60;;;;;;;;;;5073678;28;20681;-68
2022/02/17 03:42:24;;;;;;;6.95;3.03;;;;;;;;;;5073984;28;20793;-68
2022/02/17 03:44:52;;;;;;;7.90;3.40;;;;;;;;;;5073627;28;20618;-68
2022/02/17 03:47:20;;;;;;;8.00;2.53;;;;;;;;;;5074227;28;20476;-68
2022/02/17 03:49:47;;;;;;;4.30;2.25;;;;;;;;;;5073918;28;20445;-68
2022/02/17 03:52:15;;;;;;;5.88;2.53;;;;;;;;;;5073754;28;20226;-71
2022/02/17 03:54:42;;;;;;;4.63;2.03;;;;;;;;;;5073842;28;20223;-70
2022/02/17 03:57:09;;;;;;;7.07;3.13;;;;;;;;;;5073736;28;20208;-69
2022/02/17 03:59:36;;;;;;;4.43;2.22;;;;;;;;;;5073534;28;20298;-68
2022/02/17 04:02:04;;;;;;;5.05;2.20;;;;;;;;;;5073380;28;20197;-69
2022/02/17 04:04:32;;;;;;;4.75;2.17;;;;;;;;;;5073749;28;20200;-70
2022/02/17 04:06:59;;;;;;;4.25;2.17;;;;;;;;;;5073618;28;20224;-71
2022/02/17 04:09:27;;;;;;;6.60;2.58;;;;;;;;;;5073956;28;20232;-70
2022/02/17 04:11:54;;;;;;;7.63;2.67;;;;;;;;;;5074386;28;20618;-70
2022/02/17 04:14:21;;;;;;;8.55;3.13;;;;;;;;;;5073564;28;20225;-70
2022/02/17 04:16:48;;;;;;;7.05;2.90;;;;;;;;;;5073663;28;20237;-70
2022/02/17 04:19:18;;;;;;;11.15;3.20;;;;;;;;;;5073244;28;20198;-70
2022/02/17 04:21:46;;;;;;;9.23;3.08;;;;;;;;;;5073198;28;20212;-70
2022/02/17 04:24:14;;;;;;;16.27;5.15;;;;;;;;;;5073089;28;20229;-69
2022/02/17 04:26:41;;;;;;;5.47;3.75;;;;;;;;;;5073435;28;20572;-69
2022/02/17 04:29:08;;;;;;;14.13;2.58;;;;;;;;;;5073426;28;20724;-69
2022/02/17 04:31:35;;;;;;;14.80;3.38;;;;;;;;;;5073886;28;20196;-69
2022/02/17 04:34:03;;;;;;;7.82;2.72;;;;;;;;;;5073638;28;20198;-69
2022/02/17 04:36:30;;;;;;;7.05;1.92;;;;;;;;;;5075612;28;20209;-70
2022/02/17 04:38:59;;;;;;;14.68;4.15;;;;;;;;;;5077585;28;20623;-70
2022/02/17 04:44:11;;;;;;;9.18;3.20;;;;;;;;;;5077358;28;20235;-70
2022/02/17 04:46:38;;;;;;;15.95;3.90;;;;;;;;;;5077481;28;20320;-70
2022/02/17 04:49:05;;;;;;;20.10;2.88;;;;;;;;;;5077208;28;20299;-70
2022/02/17 04:51:33;;;;;;;14.25;4.07;;;;;;;;;;5077919;28;20251;-70
2022/02/17 04:54:01;;;;;;;14.82;3.63;;;;;;;;;;5076819;28;20286;-70
2022/02/17 04:56:29;;;;;;;8.15;2.58;;;;;;;;;;5077861;28;20206;-70
2022/02/17 04:58:56;;;;;;;5.63;3.10;;;;;;;;;;5076780;28;20289;-69
2022/02/17 05:01:23;;;;;;;15.40;3.40;;;;;;;;;;5076998;28;20197;-69
2022/02/17 05:03:50;;;;;;;10.25;2.80;;;;;;;;;;5077269;28;20228;-69
2022/02/17 05:06:17;;;;;;;7.50;2.92;;;;;;;;;;5076819;28;20217;-68
2022/02/17 05:08:45;;;;;;;8.75;2.83;;;;;;;;;;5077253;28;20611;-69
2022/02/17 05:11:13;;;;;;;10.80;2.78;;;;;;;;;;5076842;28;20602;-68
2022/02/17 05:13:41;;;;;;;8.48;3.90;;;;;;;;;;5076408;28;20671;-69
2022/02/17 05:16:08;;;;;;;9.02;2.75;;;;;;;;;;5076425;28;20201;-69
2022/02/17 05:18:35;;;;;;;13.02;2.95;;;;;;;;;;5077081;28;20298;-70
2022/02/17 05:21:02;;;;;;;3.10;2.15;;;;;;;;;;5076643;28;20290;-69
2022/02/17 05:23:30;;;;;;;9.00;3.40;;;;;;;;;;5076294;28;20766;-70
2022/02/17 05:25:57;;;;;;;7.32;3.03;;;;;;;;;;5076266;28;20245;-70
2022/02/17 05:28:25;;;;;;;7.22;2.78;;;;;;;;;;5076495;28;20613;-70
2022/02/17 05:30:53;;;;;;;7.18;3.45;;;;;;;;;;5076823;28;20613;-70
2022/02/17 05:33:20;;;;;;;9.75;3.92;;;;;;;;;;5076451;28;20240;-71
2022/02/17 05:35:48;;;;;;;3.50;2.53;;;;;;;;;;5076339;28;20198;-70
2022/02/17 05:38:15;;;;;;;4.22;2.20;;;;;;;;;;5076558;28;20214;-70
2022/02/17 05:40:43;;;;;;;6.85;2.47;;;;;;;;;;5076481;28;20242;-70
2022/02/17 05:43:10;;;;;;;9.75;2.72;;;;;;;;;;5076355;28;20280;-70
2022/02/17 05:45:39;;;;;;;10.48;2.95;;;;;;;;;;5075296;28;20221;-70
2022/02/17 05:48:06;;;;;;;9.80;2.80;;;;;;;;;;5075360;28;20220;-69
2022/02/17 05:50:33;;;;;;;5.97;2.28;;;;;;;;;;5075881;28;20270;-70
2022/02/17 05:53:01;;;;;;;12.02;3.53;;;;;;;;;;5075731;28;20196;-70
2022/02/17 05:55:28;;;;;;;5.75;2.67;;;;;;;;;;5075731;28;20627;-70
2022/02/17 05:57:56;;;;;;;8.15;3.55;;;;;;;;;;5075710;28;20207;-70
2022/02/17 06:00:23;;;;;;;10.88;2.80;;;;;;;;;;5075725;28;20197;-70
2022/02/17 06:02:52;;;;;;;10.32;2.67;;;;;;;;;;5075566;28;20284;-70
2022/02/17 06:05:28;;;;;;;12.30;3.88;;;;;;;;;;5075969;28;20202;-70
2022/02/17 06:07:55;;;;;;;6.22;3.78;;;;;;;;;;5075893;28;20241;-70
2022/02/17 06:10:23;;;;;;;6.80;2.40;;;;;;;;;;5075461;28;20201;-70
2022/02/17 06:12:50;;;;;;;10.07;2.92;;;;;;;;;;5075955;28;20233;-69
2022/02/17 06:15:19;;;;;;;9.23;3.30;;;;;;;;;;5075427;28;20203;-69
2022/02/17 06:17:46;;;;;;;8.35;2.88;;;;;;;;;;5075176;28;20201;-69
2022/02/17 06:20:15;;;;;;;12.50;3.33;;;;;;;;;;5074730;28;20194;-69
2022/02/17 06:22:46;;;;;;;11.13;2.97;;;;;;;;;;5074698;28;20312;-69
2022/02/17 06:25:13;;;;;;;8.45;3.00;;;;;;;;;;5074938;28;20229;-69
2022/02/17 06:27:40;;;;;;;6.90;2.42;;;;;;;;;;5075124;28;20313;-69
2022/02/17 06:30:08;;;;;;;6.72;2.60;;;;;;;;;;5075365;28;20281;-69
2022/02/17 06:32:35;;;;;;;5.82;2.67;;;;;;;;;;5075177;28;20196;-69
2022/02/17 06:35:03;;;;;;;12.65;3.20;;;;;;;;;;5074762;28;20194;-69
2022/02/17 06:37:31;;;;;;;11.50;2.88;;;;;;;;;;5075331;28;20627;-69
2022/02/17 06:39:58;;;;;;;3.15;1.67;;;;;;;;;;5075344;28;20240;-69
2022/02/17 06:42:26;;;;;;;10.85;2.30;;;;;;;;;;5075368;28;20236;-70
2022/02/17 06:44:53;;;;;;;18.70;3.75;;;;;;;;;;5074701;28;20233;-69
2022/02/17 06:47:20;;;;;;;7.13;2.27;;;;;;;;;;5074699;28;20218;-69
2022/02/17 06:49:47;;;;;;;5.50;2.25;;;;;;;;;;5074084;28;20746;-69
2022/02/17 06:52:15;;;;;;;7.72;2.05;;;;;;;;;;5074710;28;20202;-70
2022/02/17 06:54:43;;;;;;;8.75;2.42;;;;;;;;;;5074895;28;20201;-69
2022/02/17 06:57:10;;;;;;;7.68;2.30;;;;;;;;;;5074739;28;20197;-70
2022/02/17 06:59:38;;;;;;;3.30;1.40;;;;;;;;;;5073844;28;20194;-71
2022/02/17 07:02:06;;;;;;;10.50;2.58;;;;;;;;;;5074309;28;20201;-69
2022/02/17 07:04:33;;;;;;;3.65;1.80;;;;;;;;;;5074446;28;20190;-70
2022/02/17 07:07:00;;;;;;;10.60;1.70;;;;;;;;;;5074398;28;20687;-69
2022/02/17 07:09:27;;;;;;;6.28;2.65;;;;;;;;;;5073904;28;20309;-69
2022/02/17 07:11:56;;;;;;;8.93;1.98;;;;;;;;;;5074170;28;20194;-69
2022/02/17 07:14:24;;;;;;;5.95;2.08;;;;;;;;;;5074354;28;20198;-70
2022/02/17 07:16:53;;;;;;;3.10;1.92;;;;;;;;;;5074610;28;20669;-68
2022/02/17 07:19:21;;;;;;;6.47;2.47;;;;;;;;;;5074290;28;20201;-68
2022/02/17 07:21:50;;;;;;;13.80;3.17;;;;;;;;;;5073976;28;20234;-69
2022/02/17 07:24:17;;;;;;;6.82;2.97;;;;;;;;;;5074056;28;20275;-70
2022/02/17 07:26:45;;;;;;;3.85;2.80;;;;;;;;;;5074087;28;20270;-67
2022/02/17 07:29:14;;;;;;;6.30;2.10;;;;;;;;;;5073538;28;20201;-67
2022/02/17 07:31:41;;;;;;;3.83;2.00;;;;;;;;;;5073824;28;20244;-67
2022/02/17 07:34:09;;;;;;;6.75;2.00;;;;;;;;;;5073878;28;20198;-71
2022/02/17 07:36:36;;;;;;;3.65;1.80;;;;;;;;;;5073662;28;20293;-77
2022/02/17 07:39:05;;;;;;;7.28;2.63;;;;;;;;;;5073650;28;20201;-70
2022/02/17 07:41:36;;;;;;;4.72;2.08;;;;;;;;;;5073987;28;20194;-70
2022/02/17 07:44:03;;;;;;;5.53;1.58;;;;;;;;;;5073933;28;20180;-70
2022/02/17 07:46:32;;;;;;;5.18;1.42;;;;;;;;;;5073708;28;20202;-69
2022/02/17 07:49:00;;;;;;;4.72;2.10;;;;;;;;;;5073376;28;20320;-71
2022/02/17 07:51:27;;;;;;;5.45;2.20;;;;;;;;;;5073670;28;20201;-70
2022/02/17 07:53:55;;;;;;;5.50;1.98;;;;;;;;;;5073664;28;20201;-70
2022/02/17 07:56:22;;;;;;;4.55;1.75;;;;;;;;;;5073874;28;20232;-70
2022/02/17 07:58:49;;;;;;;9.50;2.20;;;;;;;;;;5073364;28;20674;-70
2022/02/17 08:01:18;;;;;;;11.20;2.17;;;;;;;;;;5073522;28;20651;-70
2022/02/17 08:03:46;;;;;;;5.40;2.03;;;;;;;;;;5074454;28;20642;-70
2022/02/17 08:06:14;;;;;;;3.72;1.77;;;;;;;;;;5073785;28;20281;-70
2022/02/17 08:08:47;;;;;;;9.10;2.83;;;;;;;;;;5073198;28;20220;-71
2022/02/17 08:11:15;;;;;;;13.85;2.65;;;;;;;;;;5073525;28;20221;-70
2022/02/17 08:13:42;;;;;;;6.40;2.60;;;;;;;;;;5073443;28;20203;-72
2022/02/17 08:16:10;;;;;;;10.15;3.20;;;;;;;;;;5073146;28;20288;-71
2022/02/17 08:18:37;;;;;;;9.60;2.40;;;;;;;;;;5073138;28;20232;-69
2022/02/17 08:21:06;;;;;;;14.82;3.25;;;;;;;;;;5073342;28;20674;-70
2022/02/17 08:23:35;;;;;;;12.20;2.58;;;;;;;;;;5073189;28;20232;-70
2022/02/17 08:26:03;;;;;;;8.48;1.60;;;;;;;;;;5073291;28;20201;-69
2022/02/17 08:28:30;;;;;;;8.23;2.08;;;;;;;;;;5073319;28;20256;-70
2022/02/17 08:30:58;;;;;;;4.55;2.05;;;;;;;;;;5073459;28;20215;-69
2022/02/17 08:33:25;;;;;;;5.55;1.92;;;;;;;;;;5073101;28;20666;-69
2022/02/17 08:35:52;;;;;;;2.95;1.90;;;;;;;;;;5073843;28;20203;-70
2022/02/17 08:38:21;;;;;;;5.72;2.13;;;;;;;;;;5073453;28;20209;-71
2022/02/17 08:40:48;;;;;;;4.03;1.80;;;;;;;;;;5073423;28;20551;-70
2022/02/17 08:43:15;;;;;;;5.82;1.73;;;;;;;;;;5072952;28;20285;-71
2022/02/17 08:45:43;;;;;;;1.60;1.50;;;;;;;;;;5073262;28;20555;-70
2022/02/17 08:48:11;;;;;;;2.92;1.63;;;;;;;;;;5073133;28;20305;-69
2022/02/17 08:50:40;;;;;;;4.72;1.45;;;;;;;;;;5073342;28;20272;-68
2022/02/17 08:53:07;;;;;;;5.97;1.77;;;;;;;;;;5073200;28;20200;-67
2022/02/17 08:55:36;;;;;;;7.13;1.95;;;;;;;;;;5073750;28;20326;-67
2022/02/17 08:58:04;;;;;;;15.50;2.22;;;;;;;;;;5073402;28;20688;-67
2022/02/17 09:00:31;;;;;;;4.18;1.88;;;;;;;;;;5073155;28;20198;-67
2022/02/17 09:02:58;;;;;;;3.97;2.00;;;;;;;;;;5073110;28;20226;-67
2022/02/17 09:05:27;;;;;;;3.90;1.77;;;;;;;;;;5072844;28;20200;-67
2022/02/17 09:07:54;;;;;;;9.88;2.67;;;;;;;;;;5073378;28;20724;-67
2022/02/17 09:10:22;;;;;;;4.88;2.95;;;;;;;;;;5072761;28;20197;-67
2022/02/17 09:12:50;;;;;;;2.97;2.15;;;;;;;;;;5073295;28;20202;-66
2022/02/17 09:15:18;;;;;;;4.68;1.70;;;;;;;;;;5072450;28;20198;-67
2022/02/17 09:17:46;;;;;;;6.28;2.38;;;;;;;;;;5072028;28;20205;-66
2022/02/17 09:20:15;;;;;;;3.55;1.92;;;;;;;;;;5072103;28;20218;-66
2022/02/17 09:22:42;;;;;;;6.18;2.00;;;;;;;;;;5075386;28;20543;-66
2022/02/17 09:25:10;;;;;;;3.60;2.25;;;;;;;;;;5076486;28;20714;-65
2022/02/17 09:27:37;;;;;;;2.25;1.95;;;;;;;;;;5076378;28;20621;-66
2022/02/17 09:30:07;;;;;;;9.35;1.90;;;;;;;;;;5076159;28;20645;-66
2022/02/17 09:32:34;;;;;;;2.47;1.75;;;;;;;;;;5076385;28;20198;-66
2022/02/17 09:35:02;;;;;;;5.05;1.60;;;;;;;;;;5076114;28;20228;-66
2022/02/17 09:37:29;;;;;;;5.72;2.25;;;;;;;;;;5076832;28;20235;-66
2022/02/17 09:39:56;;;;;;;4.35;2.13;;;;;;;;;;5075846;28;20296;-66
2022/02/17 09:42:24;;;;;;;6.57;2.55;;;;;;;;;;5075925;28;20202;-66
2022/02/17 09:44:51;;;;;;;4.47;1.85;;;;;;;;;;5076088;28;20621;-66
2022/02/17 09:47:20;;;;;;;2.50;1.95;;;;;;;;;;5075674;28;20208;-66
2022/02/17 09:49:47;;;;;;;5.07;2.72;;;;;;;;;;5075763;28;20281;-66
2022/02/17 09:52:16;;;;;;;3.78;1.63;;;;;;;;;;5075677;28;20252;-65
2022/02/17 09:54:43;;;;;;;4.05;1.73;;;;;;;;;;5076145;28;20206;-65
2022/02/17 09:57:10;;;;;;;4.15;2.10;;;;;;;;;;5076065;28;20237;-65
2022/02/17 09:59:38;;;;;;;5.13;2.45;;;;;;;;;;5075928;28;20240;-64
2022/02/17 10:02:08;;;;;;;3.60;1.88;;;;;;;;;;5076258;28;20190;-66
2022/02/17 10:04:37;;;;;;;5.90;2.08;;;;;;;;;;5076374;28;20225;-65
2022/02/17 10:07:06;;;;;;;6.32;2.25;;;;;;;;;;5075115;28;20251;-66
2022/02/17 10:09:38;;;;;;;17.40;1.95;;;;;;;;;;5075520;28;20556;-66
2022/02/17 10:12:05;;;;;;;5.07;1.83;;;;;;;;;;5075667;28;20201;-65
2022/02/17 10:14:33;;;;;;;5.68;2.15;;;;;;;;;;5075580;28;20195;-65
2022/02/17 10:17:03;;;;;;;9.82;2.60;;;;;;;;;;5075177;28;20645;-65
2022/02/17 10:19:34;;;;;;;4.07;1.73;;;;;;;;;;5076057;28;20640;-66
2022/02/17 10:22:04;;;;;;;6.70;2.30;;;;;;;;;;5075242;28;20186;-65
2022/02/17 10:24:32;;;;;;;4.20;2.08;;;;;;;;;;5075634;28;20226;-65
2022/02/17 10:27:04;;;;;;;5.57;2.33;;;;;;;;;;5075354;28;20201;-65
2022/02/17 10:29:31;;;;;;;7.97;1.88;;;;;;;;;;5075281;28;20223;-66
2022/02/17 10:32:09;;;;;;;5.40;1.77;;;;;;;;;;5074903;28;20660;-66
2022/02/17 10:34:37;;;;;;;6.30;2.05;;;;;;;;;;5075590;28;20226;-66
2022/02/17 10:37:06;;;;;;;3.83;2.00;;;;;;;;;;5075919;28;20194;-66
2022/02/17 10:39:42;;;;;;;5.15;1.50;;;;;;;;;;5075455;28;20608;-66
2022/02/17 10:42:10;;;;;;;3.70;1.50;;;;;;;;;;5074852;28;20178;-65
2022/02/17 10:44:38;;;;;;;10.80;2.40;;;;;;;;;;5075412;28;20194;-65
2022/02/17 10:47:18;;;;;;;4.43;2.03;;;;;;;;;;5074635;28;20186;-66
2022/02/17 10:49:47;;;;;;;3.58;1.90;;;;;;;;;;5074214;28;20716;-66
2022/02/17 10:52:27;;;;;;;7.40;2.00;;;;;;;;;;5074897;28;20277;-66
2022/02/17 10:55:10;;;;;;;5.03;1.95;;;;;;;;;;5074547;28;20272;-65
2022/02/17 10:57:38;;;;;;;2.15;1.30;;;;;;;;;;5073062;28;20572;-65
2022/02/17 11:00:12;;;;;;;8.18;2.65;;;;;;;;;;5075185;28;20205;-65
2022/02/17 11:02:40;;;;;;;5.03;2.13;;;;;;;;;;5074304;28;20235;-65
2022/02/17 11:05:08;;;;;;;3.75;2.13;;;;;;;;;;5074459;28;20200;-66
2022/02/17 11:07:37;;;;;;;11.57;3.80;;;;;;;;;;5074302;28;20202;-65
2022/02/17 11:10:05;;;;;;;2.75;1.50;;;;;;;;;;5074461;28;20230;-66
2022/02/17 11:12:33;;;;;;;6.68;2.22;;;;;;;;;;5074555;28;20624;-65
2022/02/17 11:15:04;;;;;;;4.00;2.30;;;;;;;;;;5074081;28;20681;-66
2022/02/17 11:17:34;;;;;;;9.68;2.50;;;;;;;;;;5074115;28;20528;-65
2022/02/17 11:20:02;;;;;;;12.43;1.60;;;;;;;;;;5074891;28;20198;-65
2022/02/17 11:22:29;;;;;;;2.38;1.52;;;;;;;;;;5074604;28;20198;-65
2022/02/17 11:24:58;;;;;;;5.75;2.45;;;;;;;;;;5074924;28;20257;-65
2022/02/17 11:27:25;;;;;;;7.72;3.17;;;;;;;;;;5073854;28;20536;-65
2022/02/17 11:29:53;;;;;;;9.25;2.35;;;;;;;;;;5073800;28;20218;-65
2022/02/17 11:32:23;;;;;;;7.13;1.95;;;;;;;;;;5074463;28;20198;-64
2022/02/17 11:34:53;;;;;;;5.97;1.85;;;;;;;;;;5073938;28;20198;-64
2022/02/17 11:37:35;;;;;;;2.78;1.70;;;;;;;;;;5073687;28;20194;-65
2022/02/17 11:40:05;;;;;;;6.97;2.33;;;;;;;;;;5072460;28;20283;-65
2022/02/17 11:42:33;;;;;;;4.95;2.03;;;;;;;;;;5073621;28;20273;-65
2022/02/17 11:45:10;;;;;;;4.68;1.75;;;;;;;;;;5073417;28;20198;-67
2022/02/17 11:47:56;;;;;;;2.90;1.98;;;;;;;;;;5073133;28;20233;-66
2022/02/17 11:50:37;;;;;;;25.27;2.60;;;;;;;;;;5073448;28;20200;-66
2022/02/17 11:53:23;;;;;;;5.53;1.45;;;;;;;;;;5073962;28;20186;-66
2022/02/17 11:55:51;;;;;;;3.33;1.58;;;;;;;;;;5073866;28;20292;-65
2022/02/17 11:58:37;;;;;;;5.43;1.80;;;;;;;;;;5073386;28;20241;-65
2022/02/17 12:01:19;;;;;;;8.23;2.17;;;;;;;;;;5073336;28;20282;-66
2022/02/17 12:03:59;;;;;;;3.53;1.75;;;;;;;;;;5073709;28;20233;-65
2022/02/17 12:06:33;;;;;;;8.23;2.70;;;;;;;;;;5073849;28;20193;-65
2022/02/17 12:09:00;;;;;;;6.93;2.47;;;;;;;;;;5073207;28;20218;-65
2022/02/17 12:11:36;;;;;;;6.30;2.10;;;;;;;;;;5073133;28;20213;-65
2022/02/17 12:14:05;;;;;;;3.90;1.75;;;;;;;;;;5073623;28;20209;-67
2022/02/17 12:16:36;;;;;;;4.90;1.98;;;;;;;;;;5073473;28;20211;-66
2022/02/17 12:19:13;;;;;;;5.95;1.70;;;;;;;;;;5073024;28;20201;-65
2022/02/17 12:21:41;;;;;;;6.78;1.70;;;;;;;;;;5074000;28;20266;-65
2022/02/17 12:24:09;;;;;;;4.03;1.30;;;;;;;;;;5073498;28;20237;-66
2022/02/17 12:26:41;;;;;;;5.05;2.55;;;;;;;;;;5072879;28;20910;-66
2022/02/17 12:29:21;;;;;;;2.42;1.58;;;;;;;;;;5072941;28;20215;-66
2022/02/17 12:31:49;;;;;;;4.65;1.85;;;;;;;;;;5073125;28;20194;-65
2022/02/17 12:34:16;;;;;;;2.75;1.83;;;;;;;;;;5073429;28;20255;-66
2022/02/17 12:36:43;;;;;;;1.63;1.20;;;;;;;;;;5072931;28;20200;-65
2022/02/17 12:39:11;;;;;;;7.30;2.00;;;;;;;;;;5072915;28;20300;-65
2022/02/17 12:41:39;;;;;;;10.80;2.75;;;;;;;;;;5073253;28;20284;-66
2022/02/17 12:44:07;;;;;;;5.78;1.73;;;;;;;;;;5073275;28;20197;-65
2022/02/17 12:46:34;;;;;;;3.63;1.52;;;;;;;;;;5072780;28;20280;-67
2022/02/17 12:49:11;;;;;;;3.75;1.90;;;;;;;;;;5072624;28;20225;-65
2022/02/17 12:51:38;;;;;;;3.78;2.30;;;;;;;;;;5072730;28;20281;-65
2022/02/17 12:54:08;;;;;;;7.55;1.95;;;;;;;;;;5073111;28;20259;-65
2022/02/17 12:56:36;;;;;;;8.30;2.00;;;;;;;;;;5073993;28;20190;-65
2022/02/17 12:59:05;;;;;;;5.23;2.10;;;;;;;;;;5077226;28;21030;-65
2022/02/17 13:01:32;;;;;;;5.53;2.10;;;;;;;;;;5076687;28;20440;-65
2022/02/17 13:04:00;;;;;;;5.63;2.50;;;;;;;;;;5076978;28;21013;-65
2022/02/17 13:06:27;;;;;;;8.05;2.50;;;;;;;;;;5076788;28;20440;-65
2022/02/17 13:08:56;;;;;;;3.20;2.10;;;;;;;;;;5076424;28;20671;-65
2022/02/17 13:11:24;;;;;;;2.45;1.80;;;;;;;;;;5076128;28;20475;-65
2022/02/17 13:14:01;;;;;;;3.65;2.03;;;;;;;;;;5076217;28;20234;-65
2022/02/17 13:16:30;;;;;;;1.60;1.40;;;;;;;;;;5076618;28;20189;-65
2022/02/17 13:18:58;;;;;;;7.80;1.90;;;;;;;;;;5076567;28;20199;-65
2022/02/17 13:21:25;;;;;;;5.57;2.08;;;;;;;;;;5076334;28;20230;-65
2022/02/17 13:24:07;;;;;;;5.20;1.90;;;;;;;;;;5076229;28;20303;-66
2022/02/17 13:26:35;;;;;;;9.77;2.20;;;;;;;;;;5076370;28;20846;-65
2022/02/17 13:29:04;;;;;;;5.47;1.90;;;;;;;;;;5075891;28;20226;-65
2022/02/17 13:31:35;;;;;;;3.90;1.88;;;;;;;;;;5075874;28;20225;-65
2022/02/17 13:34:22;;;;;;;5.00;2.58;;;;;;;;;;5076428;28;20190;-65
2022/02/17 13:36:50;;;;;;;9.10;2.40;;;;;;;;;;5076365;28;20670;-65
2022/02/17 13:39:19;;;;;;;8.05;1.90;;;;;;;;;;5076306;28;20229;-65
2022/02/17 13:41:59;;;;;;;3.73;2.37;;;;;;;;;;5075818;28;20190;-65
2022/02/17 13:44:29;;;;;;;8.65;2.58;;;;;;;;;;5076025;28;20451;-66
2022/02/17 13:46:58;;;;;;;3.95;2.17;;;;;;;;;;5075516;28;20247;-65
2022/02/17 13:49:26;;;;;;;5.15;1.65;;;;;;;;;;5075305;28;20254;-65
2022/02/17 13:51:53;;;;;;;4.30;1.97;;;;;;;;;;5076103;28;20614;-65
2022/02/17 13:54:21;;;;;;;3.90;1.87;;;;;;;;;;5075803;28;20938;-65
2022/02/17 13:56:48;;;;;;;3.65;2.10;;;;;;;;;;5075953;28;20477;-65
2022/02/17 13:59:15;;;;;;;2.75;1.50;;;;;;;;;;5076310;28;20697;-65
2022/02/17 14:01:44;;;;;;;3.65;1.70;;;;;;;;;;5076034;28;20237;-65
2022/02/17 14:04:16;;;;;;;3.60;1.33;;;;;;;;;;5076016;28;20194;-65
2022/02/17 14:06:43;;;;;;;1.77;1.23;;;;;;;;;;5075470;28;20285;-66
2022/02/17 14:09:12;;;;;;;2.33;1.77;;;;;;;;;;5075485;28;20316;-66
2022/02/17 14:11:40;;;;;;;9.93;2.75;;;;;;;;;;5075095;28;20944;-66
2022/02/17 14:14:09;;;;;;;8.80;1.85;;;;;;;;;;5075496;28;20204;-66
2022/02/17 14:16:37;;;;;;;4.43;1.65;;;;;;;;;;5075046;28;20249;-65
2022/02/17 14:19:04;;;;;;;3.80;1.83;;;;;;;;;;5075082;28;20205;-65
2022/02/17 14:21:33;;;;;;;2.78;1.33;;;;;;;;;;5075225;28;20677;-66
2022/02/17 14:24:00;;;;;;;2.45;1.40;;;;;;;;;;5075263;28;20236;-65
2022/02/17 14:26:27;;;;;;;5.03;1.40;;;;;;;;;;5075447;28;20286;-64
2022/02/17 14:28:54;;;;;;;4.10;1.65;;;;;;;;;;5075400;28;20204;-65
2022/02/17 14:31:22;;;;;;;4.55;2.50;;;;;;;;;;5074815;28;20288;-65
2022/02/17 14:33:49;;;;;;;5.38;1.90;;;;;;;;;;5076056;28;20600;-65
2022/02/17 14:36:16;;;;;;;3.57;1.37;;;;;;;;;;5075076;28;20247;-65
2022/02/17 14:38:46;;;;;;;4.55;1.75;;;;;;;;;;5075041;28;20502;-66
2022/02/17 14:41:13;;;;;;;12.05;2.38;;;;;;;;;;5075360;28;20284;-65
2022/02/17 14:43:41;;;;;;;7.47;2.27;;;;;;;;;;5074720;28;20628;-65
2022/02/17 14:46:08;;;;;;;6.57;1.60;;;;;;;;;;5074768;28;20524;-65
2022/02/17 14:48:35;;;;;;;9.82;2.42;;;;;;;;;;5074879;28;20221;-65
2022/02/17 14:51:03;;;;;;;11.90;2.42;;;;;;;;;;5074551;28;20287;-65
2022/02/17 14:53:31;;;;;;;6.95;2.17;;;;;;;;;;5074938;28;20230;-65